首页
METAR-TAF:

METAR-TAF

机场 :

青島流亭國際機場

青岛, 中华人民共和国

纬度: 36-04N, 经度: 120-20E, 海拔: 77米

当前天气观测

该预报发布于29分钟前的02:00 UTC
风速12节,风向东南
温度 28°C
湿度 79%
气压 1006 hPa
能见度10公里或以上
多云层高于2000英尺
阴天层高于5000英尺

METAR: ZSQD 190200Z 13006MPS 9999 BKN020 OVC050 28/24 Q1006 NOSIG

时间: 10:29 (02:29 UTC)

预报

该预报发布于6小时和45分钟前的19:44 UTC
预报有效从19日的 00点(UTC)到 19日的 24点(UTC)
风速16节,风向南转南东,有时为25节阵风
能见度10公里或以上
多云层高于3000英尺
几率 40% :
短暂存在
从 19日的 00点(UTC)到 19日的 06点(UTC)
少量云层高于3000英尺, 积雨云.
多云层高于4000英尺
阵雨
几率 40% :
短暂存在
从 19日的 18点(UTC)到 19日的 24点(UTC)
少量云层高于3000英尺, 积雨云.
多云层高于4000英尺
阵雨

TAF: ZSQD 181944Z 1900/1924 16008G13MPS 9999 BKN030 TX31/1906Z TN27/1921Z PROB40 TEMPO 1900/1906 SHRA FEW030CB BKN040 PROB40 TEMPO 1918/1924 SHRA FEW030CB BKN040

超过4000个机场的气象观测和天气预报(METAR&TAF报告)。

可查询的气象台以黄色和红色小点在地图上表示。

将鼠标移到小点上方,可查看气象台名称。

然后点击查看天气观测和预报。

如需切换地图:点击带黑十字的绿色按钮放大地图;点击带横线的绿色按钮缩小地图;或者点击绿色箭头查看邻近地区的地图。


METAR-TAF: